createdAt,value
2023-05-23T00:09:15.626Z,88.91
2023-05-23T00:19:19.915Z,89.50
2023-05-23T00:29:23.025Z,90.83
2023-05-23T00:39:28.200Z,90.36
2023-05-23T00:49:32.131Z,90.02
2023-05-23T00:59:37.696Z,89.17
2023-05-23T01:09:40.899Z,90.00
2023-05-23T01:20:01.302Z,90.79
2023-05-23T01:30:09.699Z,90.97
2023-05-23T01:40:13.156Z,90.70
2023-05-23T01:50:19.049Z,90.62
2023-05-23T02:00:22.295Z,90.95
2023-05-23T02:10:26.955Z,92.82
2023-05-23T02:20:29.936Z,92.84
2023-05-23T02:30:34.456Z,92.78
2023-05-23T02:40:37.578Z,92.21
2023-05-23T02:50:41.954Z,88.48
2023-05-23T03:00:45.232Z,85.93
2023-05-23T03:10:50.027Z,85.53
2023-05-23T03:20:53.733Z,85.36
2023-05-23T03:31:01.031Z,85.14
2023-05-23T03:41:04.467Z,85.13
2023-05-23T03:51:09.991Z,86.86
2023-05-23T04:01:13.816Z,88.70
2023-05-23T04:11:18.709Z,91.66
2023-05-23T04:21:21.862Z,96.73
2023-05-23T04:31:38.229Z,97.72
2023-05-23T04:41:41.220Z,98.54
2023-05-23T04:52:20.840Z,97.83
2023-05-23T05:02:23.857Z,97.64
2023-05-23T05:12:28.343Z,97.25
2023-05-23T05:22:31.553Z,97.50
2023-05-23T05:32:36.506Z,97.43
2023-05-23T05:42:39.963Z,97.23
2023-05-23T05:52:44.449Z,97.79
2023-05-23T06:02:48.657Z,97.31
2023-05-23T06:13:00.353Z,95.27
2023-05-23T06:23:05.655Z,94.51
2023-05-23T06:33:10.320Z,94.09
2023-05-23T06:43:13.322Z,94.45
2023-05-23T06:53:29.641Z,94.33
2023-05-23T07:03:33.629Z,93.95
2023-05-23T07:13:42.680Z,93.85
2023-05-23T07:23:51.750Z,93.97
2023-05-23T07:33:57.494Z,93.47
2023-05-23T07:44:09.971Z,93.79
2023-05-23T07:54:16.519Z,92.35
2023-05-23T08:04:20.963Z,90.98
2023-05-23T08:14:42.223Z,89.65
2023-05-23T08:24:57.828Z,88.72
2023-05-23T08:35:04.946Z,89.04
2023-05-23T08:45:10.806Z,93.67
2023-05-23T08:55:16.410Z,87.00
2023-05-23T09:05:20.305Z,87.17
2023-05-23T09:15:27.463Z,89.10
2023-05-23T09:25:31.268Z,90.15
2023-05-23T09:35:35.987Z,93.06
2023-05-23T09:45:39.611Z,93.35
2023-05-23T09:55:44.076Z,93.39
2023-05-23T10:05:48.748Z,91.46
2023-05-23T10:15:59.678Z,93.68
2023-05-23T10:26:06.199Z,97.87
2023-05-23T10:36:16.372Z,100.00
2023-05-23T10:46:22.098Z,99.77
2023-05-23T10:56:26.734Z,94.57
2023-05-23T11:06:32.894Z,92.77
2023-05-23T11:16:43.838Z,82.61
2023-05-23T11:26:54.650Z,76.35
2023-05-23T11:37:01.051Z,59.82
2023-05-23T11:47:06.368Z,61.25
2023-05-23T11:57:11.270Z,64.24
2023-05-23T12:07:14.275Z,52.07
2023-05-23T12:17:18.886Z,64.71
2023-05-23T12:27:28.627Z,68.61
2023-05-23T12:37:32.964Z,65.11
2023-05-23T12:47:36.081Z,59.58
2023-05-23T12:57:40.452Z,61.31
2023-05-23T13:07:44.599Z,69.46
2023-05-23T13:17:50.384Z,72.04
2023-05-23T13:27:54.087Z,70.78
2023-05-23T13:37:58.499Z,64.17
2023-05-23T13:48:02.031Z,60.28
2023-05-23T13:58:06.309Z,64.65
2023-05-23T14:08:09.298Z,58.54
2023-05-23T14:18:13.846Z,58.13
2023-05-23T14:28:44.654Z,58.01
2023-05-23T14:38:51.181Z,55.95
2023-05-23T14:48:54.088Z,61.28
2023-05-23T14:58:58.663Z,57.82
2023-05-23T15:09:01.879Z,50.11
2023-05-23T15:19:06.748Z,50.82
2023-05-23T15:29:09.909Z,48.78
2023-05-23T15:39:16.377Z,52.56
2023-05-23T15:49:26.462Z,52.77
2023-05-23T15:59:31.907Z,51.65
2023-05-23T16:09:34.989Z,50.05
2023-05-23T16:19:39.328Z,50.80
2023-05-23T16:29:42.538Z,49.51
2023-05-23T16:39:46.968Z,49.64
2023-05-23T16:49:50.290Z,50.76
2023-05-23T16:59:54.936Z,50.82
2023-05-23T17:09:58.009Z,51.57
2023-05-23T17:20:02.330Z,50.43
2023-05-23T17:30:06.171Z,48.79
2023-05-23T17:40:11.927Z,50.29
2023-05-23T17:50:14.966Z,50.62
2023-05-23T18:00:21.363Z,51.06
2023-05-23T18:10:24.722Z,52.45
2023-05-23T18:20:29.077Z,52.20
2023-05-23T18:30:32.121Z,54.79
2023-05-23T18:40:36.414Z,54.80
2023-05-23T18:50:39.842Z,55.27
2023-05-23T19:00:45.439Z,56.24
2023-05-23T19:10:48.600Z,56.39
2023-05-23T19:20:53.280Z,56.85
2023-05-23T19:30:56.382Z,56.92
2023-05-23T19:41:00.642Z,64.14
2023-05-23T19:51:03.678Z,58.88
2023-05-23T20:01:08.045Z,57.68
2023-05-23T20:11:12.519Z,59.97
2023-05-23T20:21:16.726Z,61.25
2023-05-23T20:31:20.008Z,62.22
2023-05-23T20:41:24.686Z,60.04
2023-05-23T20:51:27.744Z,58.15
2023-05-23T21:01:33.061Z,58.11
2023-05-23T21:11:36.211Z,61.53
2023-05-23T21:21:40.678Z,62.76
2023-05-23T21:31:43.776Z,63.86
2023-05-23T21:41:48.328Z,64.35
2023-05-23T21:51:51.473Z,64.91
2023-05-23T22:01:55.788Z,64.96
2023-05-23T22:11:58.932Z,63.66
2023-05-23T22:22:03.546Z,62.37
2023-05-23T22:32:06.899Z,61.94
2023-05-23T22:42:11.280Z,62.25
2023-05-23T22:52:15.046Z,62.87
2023-05-23T23:02:19.463Z,62.77
2023-05-23T23:12:22.520Z,63.41
2023-05-23T23:22:26.984Z,63.54
2023-05-23T23:32:30.879Z,63.54
2023-05-23T23:42:36.058Z,63.70
2023-05-23T23:52:39.070Z,63.69
